sensor_id;sensor_type;location;lat;lon;timestamp;P1;durP1;ratioP1;P2;durP2;ratioP2
7665;SDS011;3875;46.562;4.898;2023-02-28T00:01:20;1.37;;;1.27;;
7665;SDS011;3875;46.562;4.898;2023-02-28T00:03:46;1.00;;;1.00;;
7665;SDS011;3875;46.562;4.898;2023-02-28T00:06:12;2.97;;;2.07;;
7665;SDS011;3875;46.562;4.898;2023-02-28T00:08:38;2.53;;;1.73;;
7665;SDS011;3875;46.562;4.898;2023-02-28T00:11:11;4.23;;;2.53;;
7665;SDS011;3875;46.562;4.898;2023-02-28T00:13:39;4.80;;;3.00;;
7665;SDS011;3875;46.562;4.898;2023-02-28T00:16:10;1.47;;;1.37;;
7665;SDS011;3875;46.562;4.898;2023-02-28T00:18:39;3.33;;;1.73;;
7665;SDS011;3875;46.562;4.898;2023-02-28T00:21:06;4.80;;;2.17;;
7665;SDS011;3875;46.562;4.898;2023-02-28T00:23:33;2.60;;;1.97;;
7665;SDS011;3875;46.562;4.898;2023-02-28T00:25:59;0.97;;;0.90;;
7665;SDS011;3875;46.562;4.898;2023-02-28T00:28:25;2.23;;;2.07;;
7665;SDS011;3875;46.562;4.898;2023-02-28T00:30:50;3.07;;;1.80;;
7665;SDS011;3875;46.562;4.898;2023-02-28T00:33:16;2.70;;;2.50;;
7665;SDS011;3875;46.562;4.898;2023-02-28T00:35:42;2.00;;;1.87;;
7665;SDS011;3875;46.562;4.898;2023-02-28T00:38:08;1.63;;;1.53;;
7665;SDS011;3875;46.562;4.898;2023-02-28T00:40:34;2.13;;;1.97;;
7665;SDS011;3875;46.562;4.898;2023-02-28T00:43:00;1.30;;;1.20;;
7665;SDS011;3875;46.562;4.898;2023-02-28T00:45:25;2.00;;;1.80;;
7665;SDS011;3875;46.562;4.898;2023-02-28T00:47:51;1.53;;;1.43;;
7665;SDS011;3875;46.562;4.898;2023-02-28T00:50:17;4.70;;;1.83;;
7665;SDS011;3875;46.562;4.898;2023-02-28T00:52:44;1.57;;;1.47;;
7665;SDS011;3875;46.562;4.898;2023-02-28T00:55:10;1.20;;;1.10;;
7665;SDS011;3875;46.562;4.898;2023-02-28T00:57:36;2.33;;;2.10;;
7665;SDS011;3875;46.562;4.898;2023-02-28T01:00:02;2.10;;;1.77;;
7665;SDS011;3875;46.562;4.898;2023-02-28T01:02:29;3.63;;;1.53;;
7665;SDS011;3875;46.562;4.898;2023-02-28T01:04:55;1.70;;;1.33;;
7665;SDS011;3875;46.562;4.898;2023-02-28T01:07:22;0.73;;;0.73;;
7665;SDS011;3875;46.562;4.898;2023-02-28T01:09:48;1.10;;;1.00;;
7665;SDS011;3875;46.562;4.898;2023-02-28T01:12:13;1.33;;;1.23;;
7665;SDS011;3875;46.562;4.898;2023-02-28T01:14:39;5.50;;;1.70;;
7665;SDS011;3875;46.562;4.898;2023-02-28T01:17:05;1.50;;;1.40;;
7665;SDS011;3875;46.562;4.898;2023-02-28T01:19:31;2.17;;;1.50;;
7665;SDS011;3875;46.562;4.898;2023-02-28T01:21:57;1.43;;;1.33;;
7665;SDS011;3875;46.562;4.898;2023-02-28T01:24:26;1.60;;;1.50;;
7665;SDS011;3875;46.562;4.898;2023-02-28T01:26:51;1.80;;;1.63;;
7665;SDS011;3875;46.562;4.898;2023-02-28T01:29:17;2.13;;;1.97;;
7665;SDS011;3875;46.562;4.898;2023-02-28T01:31:43;2.00;;;1.87;;
7665;SDS011;3875;46.562;4.898;2023-02-28T01:34:08;1.50;;;1.30;;
7665;SDS011;3875;46.562;4.898;2023-02-28T01:36:34;4.20;;;2.83;;
7665;SDS011;3875;46.562;4.898;2023-02-28T01:39:01;2.13;;;1.73;;
7665;SDS011;3875;46.562;4.898;2023-02-28T01:41:28;2.40;;;1.83;;
7665;SDS011;3875;46.562;4.898;2023-02-28T01:43:57;1.30;;;1.20;;
7665;SDS011;3875;46.562;4.898;2023-02-28T01:46:28;1.33;;;1.23;;
7665;SDS011;3875;46.562;4.898;2023-02-28T01:51:39;1.17;;;1.07;;
7665;SDS011;3875;46.562;4.898;2023-02-28T01:54:11;8.10;;;2.30;;
7665;SDS011;3875;46.562;4.898;2023-02-28T01:56:45;3.83;;;1.90;;
7665;SDS011;3875;46.562;4.898;2023-02-28T01:59:22;1.50;;;1.40;;
7665;SDS011;3875;46.562;4.898;2023-02-28T02:01:54;2.53;;;2.33;;
7665;SDS011;3875;46.562;4.898;2023-02-28T02:04:21;3.60;;;2.53;;
7665;SDS011;3875;46.562;4.898;2023-02-28T02:06:50;3.07;;;2.77;;
7665;SDS011;3875;46.562;4.898;2023-02-28T02:09:16;1.37;;;1.20;;
7665;SDS011;3875;46.562;4.898;2023-02-28T02:11:43;2.43;;;1.97;;
7665;SDS011;3875;46.562;4.898;2023-02-28T02:37:13;1.40;;;1.30;;
7665;SDS011;3875;46.562;4.898;2023-02-28T02:40:02;1.53;;;1.43;;
7665;SDS011;3875;46.562;4.898;2023-02-28T02:42:39;2.07;;;1.87;;
7665;SDS011;3875;46.562;4.898;2023-02-28T02:45:25;3.17;;;1.97;;
7665;SDS011;3875;46.562;4.898;2023-02-28T02:48:02;3.00;;;1.73;;
7665;SDS011;3875;46.562;4.898;2023-02-28T02:50:36;2.87;;;2.00;;
7665;SDS011;3875;46.562;4.898;2023-02-28T02:53:14;1.40;;;1.30;;
7665;SDS011;3875;46.562;4.898;2023-02-28T02:55:44;1.10;;;1.10;;
7665;SDS011;3875;46.562;4.898;2023-02-28T02:58:18;2.63;;;1.67;;
7665;SDS011;3875;46.562;4.898;2023-02-28T03:00:48;4.70;;;1.60;;
7665;SDS011;3875;46.562;4.898;2023-02-28T03:03:18;1.37;;;1.27;;
7665;SDS011;3875;46.562;4.898;2023-02-28T03:05:53;1.03;;;1.00;;
7665;SDS011;3875;46.562;4.898;2023-02-28T03:08:24;4.67;;;2.20;;
7665;SDS011;3875;46.562;4.898;2023-02-28T03:10:51;2.73;;;2.20;;
7665;SDS011;3875;46.562;4.898;2023-02-28T03:13:31;1.87;;;1.67;;
7665;SDS011;3875;46.562;4.898;2023-02-28T03:27:17;3.77;;;3.00;;
7665;SDS011;3875;46.562;4.898;2023-02-28T03:30:18;3.90;;;2.40;;
7665;SDS011;3875;46.562;4.898;2023-02-28T03:33:44;1.07;;;1.03;;
7665;SDS011;3875;46.562;4.898;2023-02-28T03:36:00;4.57;;;2.77;;
7665;SDS011;3875;46.562;4.898;2023-02-28T03:41:25;4.03;;;2.40;;
7665;SDS011;3875;46.562;4.898;2023-02-28T03:44:06;2.03;;;1.47;;
7665;SDS011;3875;46.562;4.898;2023-02-28T03:46:41;1.30;;;1.20;;
7665;SDS011;3875;46.562;4.898;2023-02-28T03:49:13;1.57;;;1.47;;
7665;SDS011;3875;46.562;4.898;2023-02-28T03:51:46;1.87;;;1.43;;
7665;SDS011;3875;46.562;4.898;2023-02-28T03:54:15;3.23;;;2.20;;
7665;SDS011;3875;46.562;4.898;2023-02-28T03:56:48;2.50;;;1.83;;
7665;SDS011;3875;46.562;4.898;2023-02-28T03:59:22;2.37;;;1.97;;
7665;SDS011;3875;46.562;4.898;2023-02-28T04:01:59;1.37;;;1.27;;
7665;SDS011;3875;46.562;4.898;2023-02-28T04:04:25;1.93;;;1.47;;
7665;SDS011;3875;46.562;4.898;2023-02-28T04:06:51;1.60;;;1.37;;
7665;SDS011;3875;46.562;4.898;2023-02-28T04:09:26;2.17;;;2.03;;
7665;SDS011;3875;46.562;4.898;2023-02-28T04:11:52;3.83;;;2.37;;
7665;SDS011;3875;46.562;4.898;2023-02-28T04:14:18;1.20;;;1.10;;
7665;SDS011;3875;46.562;4.898;2023-02-28T04:16:44;1.40;;;1.33;;
7665;SDS011;3875;46.562;4.898;2023-02-28T04:19:10;1.87;;;1.73;;
7665;SDS011;3875;46.562;4.898;2023-02-28T04:21:38;1.00;;;0.97;;
7665;SDS011;3875;46.562;4.898;2023-02-28T04:24:06;1.60;;;1.50;;
7665;SDS011;3875;46.562;4.898;2023-02-28T04:26:34;2.73;;;2.30;;
7665;SDS011;3875;46.562;4.898;2023-02-28T04:29:02;3.13;;;2.20;;
7665;SDS011;3875;46.562;4.898;2023-02-28T04:31:29;1.30;;;1.20;;
7665;SDS011;3875;46.562;4.898;2023-02-28T04:33:55;2.97;;;2.67;;
7665;SDS011;3875;46.562;4.898;2023-02-28T04:36:21;5.30;;;2.70;;
7665;SDS011;3875;46.562;4.898;2023-02-28T04:38:48;4.60;;;2.30;;
7665;SDS011;3875;46.562;4.898;2023-02-28T04:41:14;1.70;;;1.60;;
7665;SDS011;3875;46.562;4.898;2023-02-28T04:43:40;3.87;;;2.43;;
7665;SDS011;3875;46.562;4.898;2023-02-28T04:46:06;1.23;;;1.13;;
7665;SDS011;3875;46.562;4.898;2023-02-28T04:48:33;1.23;;;1.17;;
7665;SDS011;3875;46.562;4.898;2023-02-28T04:51:01;1.20;;;1.20;;
7665;SDS011;3875;46.562;4.898;2023-02-28T04:53:31;2.63;;;1.83;;
7665;SDS011;3875;46.562;4.898;2023-02-28T04:55:58;1.30;;;1.20;;
7665;SDS011;3875;46.562;4.898;2023-02-28T04:58:23;2.27;;;2.10;;
7665;SDS011;3875;46.562;4.898;2023-02-28T05:00:50;3.70;;;2.20;;
7665;SDS011;3875;46.562;4.898;2023-02-28T05:03:17;1.87;;;1.10;;
7665;SDS011;3875;46.562;4.898;2023-02-28T05:05:42;1.07;;;1.03;;
7665;SDS011;3875;46.562;4.898;2023-02-28T05:08:08;1.73;;;1.30;;
7665;SDS011;3875;46.562;4.898;2023-02-28T05:10:34;3.27;;;2.50;;
7665;SDS011;3875;46.562;4.898;2023-02-28T05:13:01;2.47;;;2.27;;
7665;SDS011;3875;46.562;4.898;2023-02-28T05:15:26;1.43;;;1.33;;
7665;SDS011;3875;46.562;4.898;2023-02-28T05:17:52;2.20;;;2.00;;
7665;SDS011;3875;46.562;4.898;2023-02-28T05:20:18;1.00;;;1.00;;
7665;SDS011;3875;46.562;4.898;2023-02-28T05:22:43;2.07;;;1.87;;
7665;SDS011;3875;46.562;4.898;2023-02-28T05:25:13;1.53;;;1.37;;
7665;SDS011;3875;46.562;4.898;2023-02-28T05:27:42;3.47;;;2.30;;
7665;SDS011;3875;46.562;4.898;2023-02-28T05:30:08;1.83;;;1.60;;
7665;SDS011;3875;46.562;4.898;2023-02-28T05:32:36;2.87;;;1.87;;
7665;SDS011;3875;46.562;4.898;2023-02-28T05:35:08;6.27;;;2.50;;
7665;SDS011;3875;46.562;4.898;2023-02-28T05:37:35;3.40;;;2.43;;
7665;SDS011;3875;46.562;4.898;2023-02-28T05:40:02;2.10;;;1.90;;
7665;SDS011;3875;46.562;4.898;2023-02-28T05:42:31;3.03;;;2.40;;
7665;SDS011;3875;46.562;4.898;2023-02-28T05:44:57;1.97;;;1.70;;
7665;SDS011;3875;46.562;4.898;2023-02-28T05:47:22;5.20;;;3.10;;
7665;SDS011;3875;46.562;4.898;2023-02-28T05:49:48;1.37;;;1.27;;
7665;SDS011;3875;46.562;4.898;2023-02-28T05:52:14;2.30;;;1.87;;
7665;SDS011;3875;46.562;4.898;2023-02-28T05:54:40;3.40;;;2.67;;
7665;SDS011;3875;46.562;4.898;2023-02-28T05:57:06;3.90;;;2.80;;
7665;SDS011;3875;46.562;4.898;2023-02-28T05:59:31;5.73;;;2.50;;
7665;SDS011;3875;46.562;4.898;2023-02-28T06:01:57;2.90;;;2.60;;
7665;SDS011;3875;46.562;4.898;2023-02-28T06:04:23;4.53;;;2.80;;
7665;SDS011;3875;46.562;4.898;2023-02-28T06:06:49;3.10;;;2.80;;
7665;SDS011;3875;46.562;4.898;2023-02-28T06:09:15;1.90;;;1.80;;
7665;SDS011;3875;46.562;4.898;2023-02-28T06:11:41;3.43;;;2.73;;
7665;SDS011;3875;46.562;4.898;2023-02-28T06:14:09;2.03;;;1.70;;
7665;SDS011;3875;46.562;4.898;2023-02-28T06:16:42;5.37;;;2.93;;
7665;SDS011;3875;46.562;4.898;2023-02-28T06:19:08;2.90;;;2.00;;
7665;SDS011;3875;46.562;4.898;2023-02-28T06:21:34;3.20;;;2.60;;
7665;SDS011;3875;46.562;4.898;2023-02-28T06:24:00;12.33;;;2.90;;
7665;SDS011;3875;46.562;4.898;2023-02-28T06:26:27;5.50;;;2.80;;
7665;SDS011;3875;46.562;4.898;2023-02-28T06:28:52;5.53;;;3.00;;
7665;SDS011;3875;46.562;4.898;2023-02-28T06:31:18;1.90;;;1.57;;
7665;SDS011;3875;46.562;4.898;2023-02-28T06:33:45;2.87;;;2.37;;
7665;SDS011;3875;46.562;4.898;2023-02-28T06:36:11;3.73;;;3.07;;
7665;SDS011;3875;46.562;4.898;2023-02-28T06:38:38;3.30;;;3.00;;
7665;SDS011;3875;46.562;4.898;2023-02-28T06:41:04;5.30;;;2.17;;
7665;SDS011;3875;46.562;4.898;2023-02-28T06:43:32;2.53;;;2.07;;
7665;SDS011;3875;46.562;4.898;2023-02-28T06:46:05;3.37;;;2.90;;
7665;SDS011;3875;46.562;4.898;2023-02-28T06:48:32;3.50;;;2.27;;
7665;SDS011;3875;46.562;4.898;2023-02-28T06:51:02;3.40;;;2.70;;
7665;SDS011;3875;46.562;4.898;2023-02-28T06:53:33;4.33;;;2.67;;
7665;SDS011;3875;46.562;4.898;2023-02-28T06:55:58;2.80;;;2.50;;
7665;SDS011;3875;46.562;4.898;2023-02-28T06:58:24;3.97;;;2.50;;
7665;SDS011;3875;46.562;4.898;2023-02-28T07:00:51;2.60;;;2.40;;
7665;SDS011;3875;46.562;4.898;2023-02-28T07:03:17;2.87;;;2.10;;
7665;SDS011;3875;46.562;4.898;2023-02-28T07:05:44;1.17;;;1.17;;
7665;SDS011;3875;46.562;4.898;2023-02-28T07:08:10;3.50;;;2.20;;
7665;SDS011;3875;46.562;4.898;2023-02-28T07:10:39;3.13;;;2.30;;
7665;SDS011;3875;46.562;4.898;2023-02-28T07:13:06;3.40;;;1.97;;
7665;SDS011;3875;46.562;4.898;2023-02-28T07:15:33;2.33;;;2.13;;
7665;SDS011;3875;46.562;4.898;2023-02-28T07:18:00;0.90;;;0.90;;
7665;SDS011;3875;46.562;4.898;2023-02-28T07:20:25;2.03;;;1.87;;
7665;SDS011;3875;46.562;4.898;2023-02-28T07:22:51;4.70;;;3.37;;
7665;SDS011;3875;46.562;4.898;2023-02-28T07:25:24;1.63;;;1.53;;
7665;SDS011;3875;46.562;4.898;2023-02-28T07:27:51;1.43;;;1.33;;
7665;SDS011;3875;46.562;4.898;2023-02-28T07:30:17;2.60;;;1.80;;
7665;SDS011;3875;46.562;4.898;2023-02-28T07:32:43;4.10;;;2.90;;
7665;SDS011;3875;46.562;4.898;2023-02-28T07:35:09;1.33;;;1.13;;
7665;SDS011;3875;46.562;4.898;2023-02-28T07:37:35;3.47;;;2.50;;
7665;SDS011;3875;46.562;4.898;2023-02-28T07:40:04;1.17;;;1.07;;
7665;SDS011;3875;46.562;4.898;2023-02-28T07:42:34;3.57;;;2.63;;
7665;SDS011;3875;46.562;4.898;2023-02-28T07:45:00;1.10;;;1.00;;
7665;SDS011;3875;46.562;4.898;2023-02-28T07:47:28;0.90;;;0.90;;
7665;SDS011;3875;46.562;4.898;2023-02-28T07:49:55;1.77;;;1.23;;
7665;SDS011;3875;46.562;4.898;2023-02-28T07:52:20;1.57;;;1.47;;
7665;SDS011;3875;46.562;4.898;2023-02-28T07:54:48;2.03;;;1.83;;
7665;SDS011;3875;46.562;4.898;2023-02-28T07:57:14;1.80;;;1.70;;
7665;SDS011;3875;46.562;4.898;2023-02-28T07:59:39;3.20;;;2.90;;
7665;SDS011;3875;46.562;4.898;2023-02-28T08:02:05;1.80;;;1.70;;
7665;SDS011;3875;46.562;4.898;2023-02-28T08:04:31;1.93;;;1.80;;
7665;SDS011;3875;46.562;4.898;2023-02-28T08:06:57;2.77;;;2.57;;
7665;SDS011;3875;46.562;4.898;2023-02-28T08:09:23;1.57;;;1.47;;
7665;SDS011;3875;46.562;4.898;2023-02-28T08:11:49;2.10;;;1.67;;
7665;SDS011;3875;46.562;4.898;2023-02-28T08:14:15;1.60;;;1.50;;
7665;SDS011;3875;46.562;4.898;2023-02-28T08:16:41;4.57;;;1.20;;
7665;SDS011;3875;46.562;4.898;2023-02-28T08:19:08;2.00;;;1.63;;
7665;SDS011;3875;46.562;4.898;2023-02-28T08:21:34;2.07;;;1.50;;
7665;SDS011;3875;46.562;4.898;2023-02-28T08:24:00;1.70;;;1.60;;
7665;SDS011;3875;46.562;4.898;2023-02-28T08:26:25;3.27;;;2.20;;
7665;SDS011;3875;46.562;4.898;2023-02-28T08:28:51;1.80;;;1.70;;
7665;SDS011;3875;46.562;4.898;2023-02-28T08:31:17;2.03;;;1.30;;
7665;SDS011;3875;46.562;4.898;2023-02-28T08:33:44;4.67;;;1.40;;
7665;SDS011;3875;46.562;4.898;2023-02-28T08:36:10;1.00;;;1.00;;
7665;SDS011;3875;46.562;4.898;2023-02-28T08:38:37;4.73;;;1.70;;
7665;SDS011;3875;46.562;4.898;2023-02-28T08:41:07;5.30;;;2.03;;
7665;SDS011;3875;46.562;4.898;2023-02-28T08:43:35;2.13;;;1.63;;
7665;SDS011;3875;46.562;4.898;2023-02-28T08:46:02;1.77;;;1.67;;
7665;SDS011;3875;46.562;4.898;2023-02-28T08:48:29;0.93;;;0.93;;
7665;SDS011;3875;46.562;4.898;2023-02-28T08:53:22;2.50;;;2.23;;
7665;SDS011;3875;46.562;4.898;2023-02-28T08:55:55;1.60;;;1.17;;
7665;SDS011;3875;46.562;4.898;2023-02-28T08:58:25;2.07;;;1.53;;
7665;SDS011;3875;46.562;4.898;2023-02-28T09:00:51;2.30;;;1.47;;
7665;SDS011;3875;46.562;4.898;2023-02-28T09:03:17;1.80;;;1.63;;
7665;SDS011;3875;46.562;4.898;2023-02-28T09:05:56;4.43;;;2.60;;
7665;SDS011;3875;46.562;4.898;2023-02-28T09:08:23;3.17;;;1.80;;
7665;SDS011;3875;46.562;4.898;2023-02-28T09:10:50;1.93;;;1.40;;
7665;SDS011;3875;46.562;4.898;2023-02-28T09:13:17;1.00;;;1.00;;
7665;SDS011;3875;46.562;4.898;2023-02-28T09:15:43;1.07;;;1.07;;
7665;SDS011;3875;46.562;4.898;2023-02-28T09:18:09;1.53;;;1.13;;
7665;SDS011;3875;46.562;4.898;2023-02-28T09:20:39;3.43;;;2.77;;
7665;SDS011;3875;46.562;4.898;2023-02-28T09:23:06;2.63;;;1.70;;
7665;SDS011;3875;46.562;4.898;2023-02-28T09:25:33;7.43;;;2.90;;
7665;SDS011;3875;46.562;4.898;2023-02-28T09:27:59;2.13;;;1.43;;
7665;SDS011;3875;46.562;4.898;2023-02-28T09:30:24;1.43;;;1.33;;
7665;SDS011;3875;46.562;4.898;2023-02-28T09:32:50;4.43;;;3.07;;
7665;SDS011;3875;46.562;4.898;2023-02-28T09:35:23;3.37;;;2.77;;
7665;SDS011;3875;46.562;4.898;2023-02-28T09:37:51;4.97;;;3.80;;
7665;SDS011;3875;46.562;4.898;2023-02-28T09:40:18;4.23;;;3.83;;
7665;SDS011;3875;46.562;4.898;2023-02-28T09:42:46;2.37;;;2.17;;
7665;SDS011;3875;46.562;4.898;2023-02-28T09:45:29;4.97;;;3.50;;
7665;SDS011;3875;46.562;4.898;2023-02-28T09:48:11;4.10;;;3.53;;
7665;SDS011;3875;46.562;4.898;2023-02-28T09:50:51;4.03;;;3.10;;
7665;SDS011;3875;46.562;4.898;2023-02-28T09:53:26;3.50;;;3.20;;
7665;SDS011;3875;46.562;4.898;2023-02-28T09:55:59;1.87;;;1.73;;
7665;SDS011;3875;46.562;4.898;2023-02-28T10:01:50;2.33;;;1.80;;
7665;SDS011;3875;46.562;4.898;2023-02-28T10:07:17;4.57;;;3.53;;
7665;SDS011;3875;46.562;4.898;2023-02-28T10:09:45;1.93;;;1.70;;
7665;SDS011;3875;46.562;4.898;2023-02-28T10:12:15;2.03;;;1.93;;
7665;SDS011;3875;46.562;4.898;2023-02-28T10:14:44;2.87;;;2.50;;
7665;SDS011;3875;46.562;4.898;2023-02-28T10:17:13;2.00;;;1.87;;
7665;SDS011;3875;46.562;4.898;2023-02-28T10:19:56;3.07;;;1.53;;
7665;SDS011;3875;46.562;4.898;2023-02-28T10:25:39;5.00;;;3.70;;
7665;SDS011;3875;46.562;4.898;2023-02-28T10:28:09;5.37;;;2.97;;
7665;SDS011;3875;46.562;4.898;2023-02-28T10:30:37;2.80;;;2.57;;
7665;SDS011;3875;46.562;4.898;2023-02-28T10:35:55;3.20;;;2.80;;
7665;SDS011;3875;46.562;4.898;2023-02-28T10:38:31;3.50;;;2.93;;
7665;SDS011;3875;46.562;4.898;2023-02-28T10:41:05;5.47;;;4.00;;
7665;SDS011;3875;46.562;4.898;2023-02-28T10:43:37;5.27;;;3.60;;
7665;SDS011;3875;46.562;4.898;2023-02-28T10:46:10;2.43;;;2.23;;
7665;SDS011;3875;46.562;4.898;2023-02-28T10:49:00;6.27;;;4.83;;
7665;SDS011;3875;46.562;4.898;2023-02-28T10:51:33;6.10;;;4.53;;
7665;SDS011;3875;46.562;4.898;2023-02-28T10:54:01;3.10;;;2.43;;
7665;SDS011;3875;46.562;4.898;2023-02-28T10:56:28;2.63;;;2.23;;
7665;SDS011;3875;46.562;4.898;2023-02-28T10:59:22;2.57;;;2.27;;
7665;SDS011;3875;46.562;4.898;2023-02-28T11:01:54;6.40;;;4.27;;
7665;SDS011;3875;46.562;4.898;2023-02-28T11:09:48;5.93;;;4.33;;
7665;SDS011;3875;46.562;4.898;2023-02-28T11:12:36;5.60;;;3.90;;
7665;SDS011;3875;46.562;4.898;2023-02-28T11:15:06;4.40;;;3.60;;
7665;SDS011;3875;46.562;4.898;2023-02-28T11:17:59;4.47;;;4.03;;
7665;SDS011;3875;46.562;4.898;2023-02-28T11:20:28;6.17;;;4.83;;
7665;SDS011;3875;46.562;4.898;2023-02-28T11:22:57;3.13;;;2.50;;
7665;SDS011;3875;46.562;4.898;2023-02-28T11:25:30;5.33;;;3.73;;
7665;SDS011;3875;46.562;4.898;2023-02-28T11:28:45;4.77;;;3.97;;
7665;SDS011;3875;46.562;4.898;2023-02-28T11:31:08;2.70;;;2.27;;
7665;SDS011;3875;46.562;4.898;2023-02-28T11:33:49;4.13;;;3.40;;
7665;SDS011;3875;46.562;4.898;2023-02-28T11:38:45;5.07;;;4.57;;
7665;SDS011;3875;46.562;4.898;2023-02-28T11:41:28;7.13;;;5.30;;
7665;SDS011;3875;46.562;4.898;2023-02-28T11:55:16;3.37;;;3.07;;
7665;SDS011;3875;46.562;4.898;2023-02-28T11:57:52;6.70;;;4.77;;
7665;SDS011;3875;46.562;4.898;2023-02-28T12:00:36;7.10;;;3.53;;
7665;SDS011;3875;46.562;4.898;2023-02-28T12:14:44;6.27;;;5.07;;
7665;SDS011;3875;46.562;4.898;2023-02-28T12:22:46;8.20;;;4.87;;
7665;SDS011;3875;46.562;4.898;2023-02-28T12:28:20;3.50;;;2.77;;
7665;SDS011;3875;46.562;4.898;2023-02-28T12:30:58;7.67;;;5.67;;
7665;SDS011;3875;46.562;4.898;2023-02-28T12:33:57;2.67;;;2.47;;
7665;SDS011;3875;46.562;4.898;2023-02-28T12:36:26;2.30;;;2.10;;
7665;SDS011;3875;46.562;4.898;2023-02-28T12:38:58;6.13;;;4.30;;
7665;SDS011;3875;46.562;4.898;2023-02-28T12:44:25;5.60;;;4.90;;
7665;SDS011;3875;46.562;4.898;2023-02-28T12:47:00;6.40;;;4.50;;
7665;SDS011;3875;46.562;4.898;2023-02-28T12:49:42;5.97;;;4.20;;
7665;SDS011;3875;46.562;4.898;2023-02-28T12:52:11;5.43;;;4.07;;
7665;SDS011;3875;46.562;4.898;2023-02-28T12:54:50;8.03;;;4.43;;
7665;SDS011;3875;46.562;4.898;2023-02-28T13:00:17;5.23;;;3.93;;
7665;SDS011;3875;46.562;4.898;2023-02-28T13:10:56;3.70;;;2.93;;
7665;SDS011;3875;46.562;4.898;2023-02-28T13:13:23;6.03;;;5.37;;
7665;SDS011;3875;46.562;4.898;2023-02-28T13:18:47;6.20;;;5.03;;
7665;SDS011;3875;46.562;4.898;2023-02-28T13:21:30;4.83;;;3.23;;
7665;SDS011;3875;46.562;4.898;2023-02-28T13:24:07;4.90;;;4.40;;
7665;SDS011;3875;46.562;4.898;2023-02-28T13:34:28;4.27;;;3.87;;
7665;SDS011;3875;46.562;4.898;2023-02-28T13:38:01;3.43;;;2.90;;
7665;SDS011;3875;46.562;4.898;2023-02-28T13:39:58;5.70;;;4.73;;
7665;SDS011;3875;46.562;4.898;2023-02-28T13:42:36;5.90;;;4.83;;
7665;SDS011;3875;46.562;4.898;2023-02-28T13:45:22;5.50;;;4.80;;
7665;SDS011;3875;46.562;4.898;2023-02-28T14:01:36;4.53;;;4.10;;
7665;SDS011;3875;46.562;4.898;2023-02-28T14:04:33;3.63;;;2.97;;
7665;SDS011;3875;46.562;4.898;2023-02-28T14:07:06;4.37;;;3.70;;
7665;SDS011;3875;46.562;4.898;2023-02-28T14:09:41;5.20;;;4.70;;
7665;SDS011;3875;46.562;4.898;2023-02-28T14:15:38;4.93;;;4.03;;
7665;SDS011;3875;46.562;4.898;2023-02-28T14:18:34;6.17;;;4.20;;
7665;SDS011;3875;46.562;4.898;2023-02-28T14:38:18;3.50;;;3.17;;
7665;SDS011;3875;46.562;4.898;2023-02-28T14:40:49;7.53;;;5.13;;
7665;SDS011;3875;46.562;4.898;2023-02-28T14:43:21;7.90;;;6.50;;
7665;SDS011;3875;46.562;4.898;2023-02-28T14:45:52;7.00;;;5.77;;
7665;SDS011;3875;46.562;4.898;2023-02-28T14:48:22;9.00;;;4.90;;
7665;SDS011;3875;46.562;4.898;2023-02-28T14:50:51;3.10;;;2.37;;
7665;SDS011;3875;46.562;4.898;2023-02-28T14:53:30;6.17;;;5.07;;
7665;SDS011;3875;46.562;4.898;2023-02-28T14:56:01;3.80;;;3.43;;
7665;SDS011;3875;46.562;4.898;2023-02-28T15:00:58;3.77;;;2.50;;
7665;SDS011;3875;46.562;4.898;2023-02-28T15:03:37;6.93;;;4.50;;
7665;SDS011;3875;46.562;4.898;2023-02-28T15:06:05;6.87;;;5.53;;
7665;SDS011;3875;46.562;4.898;2023-02-28T15:08:37;9.63;;;5.10;;
7665;SDS011;3875;46.562;4.898;2023-02-28T15:13:36;4.20;;;3.30;;
7665;SDS011;3875;46.562;4.898;2023-02-28T15:16:12;5.60;;;3.90;;
7665;SDS011;3875;46.562;4.898;2023-02-28T15:26:40;3.63;;;3.13;;
7665;SDS011;3875;46.562;4.898;2023-02-28T15:29:12;7.67;;;6.03;;
7665;SDS011;3875;46.562;4.898;2023-02-28T15:32:24;5.70;;;3.93;;
7665;SDS011;3875;46.562;4.898;2023-02-28T15:37:24;9.00;;;5.53;;
7665;SDS011;3875;46.562;4.898;2023-02-28T15:39:52;4.97;;;4.27;;
7665;SDS011;3875;46.562;4.898;2023-02-28T15:42:20;3.00;;;2.33;;
7665;SDS011;3875;46.562;4.898;2023-02-28T15:44:47;2.50;;;2.30;;
7665;SDS011;3875;46.562;4.898;2023-02-28T15:47:16;4.83;;;3.00;;
7665;SDS011;3875;46.562;4.898;2023-02-28T15:49:48;5.37;;;4.63;;
7665;SDS011;3875;46.562;4.898;2023-02-28T15:52:18;7.53;;;6.70;;
7665;SDS011;3875;46.562;4.898;2023-02-28T15:54:47;5.03;;;3.10;;
7665;SDS011;3875;46.562;4.898;2023-02-28T15:57:15;3.00;;;2.37;;
7665;SDS011;3875;46.562;4.898;2023-02-28T15:59:49;2.43;;;2.23;;
7665;SDS011;3875;46.562;4.898;2023-02-28T16:02:34;7.13;;;5.23;;
7665;SDS011;3875;46.562;4.898;2023-02-28T16:07:51;8.27;;;6.20;;
7665;SDS011;3875;46.562;4.898;2023-02-28T16:10:17;4.03;;;3.03;;
7665;SDS011;3875;46.562;4.898;2023-02-28T16:12:43;2.33;;;1.87;;
7665;SDS011;3875;46.562;4.898;2023-02-28T16:15:19;5.37;;;4.43;;
7665;SDS011;3875;46.562;4.898;2023-02-28T16:17:47;5.57;;;4.40;;
7665;SDS011;3875;46.562;4.898;2023-02-28T16:20:14;4.77;;;3.67;;
7665;SDS011;3875;46.562;4.898;2023-02-28T16:22:43;5.30;;;4.43;;
7665;SDS011;3875;46.562;4.898;2023-02-28T16:25:12;5.13;;;3.40;;
7665;SDS011;3875;46.562;4.898;2023-02-28T16:27:39;8.00;;;5.80;;
7665;SDS011;3875;46.562;4.898;2023-02-28T16:30:06;4.97;;;4.37;;
7665;SDS011;3875;46.562;4.898;2023-02-28T16:32:39;3.77;;;3.33;;
7665;SDS011;3875;46.562;4.898;2023-02-28T16:35:06;4.57;;;3.00;;
7665;SDS011;3875;46.562;4.898;2023-02-28T16:37:35;5.27;;;3.83;;
7665;SDS011;3875;46.562;4.898;2023-02-28T16:40:03;6.77;;;5.40;;
7665;SDS011;3875;46.562;4.898;2023-02-28T16:42:29;6.70;;;5.30;;
7665;SDS011;3875;46.562;4.898;2023-02-28T16:44:56;5.67;;;5.10;;
7665;SDS011;3875;46.562;4.898;2023-02-28T16:47:23;4.20;;;3.70;;
7665;SDS011;3875;46.562;4.898;2023-02-28T16:49:51;1.57;;;1.47;;
7665;SDS011;3875;46.562;4.898;2023-02-28T16:52:18;5.23;;;4.40;;
7665;SDS011;3875;46.562;4.898;2023-02-28T16:54:44;7.17;;;5.27;;
7665;SDS011;3875;46.562;4.898;2023-02-28T16:57:20;8.83;;;5.57;;
7665;SDS011;3875;46.562;4.898;2023-02-28T16:59:48;7.40;;;6.10;;
7665;SDS011;3875;46.562;4.898;2023-02-28T17:02:17;8.53;;;6.10;;
7665;SDS011;3875;46.562;4.898;2023-02-28T17:04:46;6.03;;;2.93;;
7665;SDS011;3875;46.562;4.898;2023-02-28T17:07:13;4.20;;;2.90;;
7665;SDS011;3875;46.562;4.898;2023-02-28T17:09:41;6.97;;;6.13;;
7665;SDS011;3875;46.562;4.898;2023-02-28T17:12:07;2.97;;;2.67;;
7665;SDS011;3875;46.562;4.898;2023-02-28T17:14:36;7.23;;;5.70;;
7665;SDS011;3875;46.562;4.898;2023-02-28T17:17:04;6.60;;;4.77;;
7665;SDS011;3875;46.562;4.898;2023-02-28T17:19:30;4.37;;;3.23;;
7665;SDS011;3875;46.562;4.898;2023-02-28T17:21:56;6.00;;;4.73;;
7665;SDS011;3875;46.562;4.898;2023-02-28T17:24:22;4.23;;;3.00;;
7665;SDS011;3875;46.562;4.898;2023-02-28T17:26:47;9.83;;;5.93;;
7665;SDS011;3875;46.562;4.898;2023-02-28T17:29:15;7.53;;;5.37;;
7665;SDS011;3875;46.562;4.898;2023-02-28T17:31:43;6.67;;;5.10;;
7665;SDS011;3875;46.562;4.898;2023-02-28T17:34:09;5.33;;;3.77;;
7665;SDS011;3875;46.562;4.898;2023-02-28T17:36:36;3.33;;;3.03;;
7665;SDS011;3875;46.562;4.898;2023-02-28T17:39:03;4.67;;;2.77;;
7665;SDS011;3875;46.562;4.898;2023-02-28T17:41:34;2.53;;;2.33;;
7665;SDS011;3875;46.562;4.898;2023-02-28T17:44:03;6.47;;;5.33;;
7665;SDS011;3875;46.562;4.898;2023-02-28T17:46:29;7.43;;;4.67;;
7665;SDS011;3875;46.562;4.898;2023-02-28T17:48:58;6.83;;;5.87;;
7665;SDS011;3875;46.562;4.898;2023-02-28T17:51:25;2.67;;;2.40;;
7665;SDS011;3875;46.562;4.898;2023-02-28T17:53:50;3.17;;;2.80;;
7665;SDS011;3875;46.562;4.898;2023-02-28T17:56:20;7.50;;;4.57;;
7665;SDS011;3875;46.562;4.898;2023-02-28T17:58:48;3.80;;;3.30;;
7665;SDS011;3875;46.562;4.898;2023-02-28T18:01:18;8.10;;;5.40;;
7665;SDS011;3875;46.562;4.898;2023-02-28T18:03:49;3.30;;;2.27;;
7665;SDS011;3875;46.562;4.898;2023-02-28T18:08:50;10.23;;;6.60;;
7665;SDS011;3875;46.562;4.898;2023-02-28T18:11:17;6.43;;;4.73;;
7665;SDS011;3875;46.562;4.898;2023-02-28T18:13:49;8.33;;;5.27;;
7665;SDS011;3875;46.562;4.898;2023-02-28T18:16:16;9.17;;;5.60;;
7665;SDS011;3875;46.562;4.898;2023-02-28T18:18:42;10.40;;;6.57;;
7665;SDS011;3875;46.562;4.898;2023-02-28T18:21:09;13.17;;;7.97;;
7665;SDS011;3875;46.562;4.898;2023-02-28T18:23:36;8.67;;;5.67;;
7665;SDS011;3875;46.562;4.898;2023-02-28T18:26:05;2.87;;;2.23;;